R. M. Thorstenson — KGCJ — position and weather

sailwx.info

Track history (hours):
 
Tides and Currents Weather Stations Pressure Air Temp Water Temp Dewpoint Dewpoint Depression Visibility Wind Speed Wind Dir Waves Ship Positions

R. M. Thorstenson

Owner: Icicle Vessel Holding, Inc., Seattle, WA. More information available from US FCC via Universal Licensing System and Coast Guard Vessel Documentation Center.

Last reported at 2017-Jan-08 20:32 UTC. Time now 2017-Jan-21 10:42 UTC.
Position N 52°02' W 128°43'.
Warning: this ship's position is 12 days out of date.

Type: Fishing. MMSI: 366577000.

Date/timePositionNaut miles runAvg speedWind from/ knotsBaromVisibWave heightAir tempDewpointWater temp
2017-Jan-08 20:32N 52°02' W 128°43'8 8.5
2017-Jan-08 19:33N 51°53' W 128°39'8 7.9
2017-Jan-08 18:33N 51°46' W 128°36'7 7.2
2017-Jan-08 17:33N 51°39' W 128°34'7 7.2
2017-Jan-08 16:33N 51°32' W 128°32'7 7.2
2017-Jan-08 15:34N 51°25' W 128°32'7 6.6
2017-Jan-08 14:29N 51°18' W 128°34'6 6.0
2017-Jan-08 13:24N 51°11' W 128°34'121 7.1
2017-Jan-07 20:29N 49°27' W 126°57'8 9.1
2017-Jan-07 19:33N 49°21' W 126°48'9 8.8
2017-Jan-07 18:34N 49°15' W 126°38'8 8.4
2017-Jan-07 17:33N 49°10' W 126°28'9 8.6
2017-Jan-07 16:33N 49°05' W 126°17'8 8.5
2017-Jan-07 15:33N 48°60' W 126°07'8 8.4
2017-Jan-07 14:33N 48°54' W 125°57'8 8.0
2017-Jan-07 13:33N 48°49' W 125°48'8 7.9
2017-Jan-07 12:33N 48°45' W 125°38'8 8.0
2017-Jan-07 11:33N 48°42' W 125°26'8 7.6
2017-Jan-07 10:33N 48°39' W 125°16'8 7.9
2017-Jan-07 09:33N 48°36' W 125°04'8 8.4
2017-Jan-07 08:33N 48°34' W 124°52'8 8.3
2017-Jan-07 07:33N 48°31' W 124°40'8 8.0
2017-Jan-07 06:33N 48°28' W 124°29'7 7.5
2017-Jan-07 05:33N 48°25' W 124°19'7 7.2
2017-Jan-07 04:33N 48°23' W 124°09'8 7.7
2017-Jan-07 03:33N 48°20' W 123°58'10 8.7
2017-Jan-07 02:24N 48°17' W 123°43'910.1
2017-Jan-07 01:33N 48°15' W 123°31'1010.0
2017-Jan-07 00:33N 48°13' W 123°16'1010.2
2017-Jan-06 23:33N 48°13' W 123°01'1211.1
2017-Jan-06 22:29N 48°10' W 122°43'1111.6
2017-Jan-06 21:33N 48°00' W 122°36'1010.3
2017-Jan-06 20:33N 47°52' W 122°27'9 9.4
2017-Jan-06 19:33N 47°42' W 122°25'3 2.7
2017-Jan-06 18:33N 47°40' W 122°24'3 2.6
2017-Jan-06 17:33N 47°39' W 122°20'0 0.3
2017-Jan-06 16:33N 47°38' W 122°20'0 0.4
2017-Jan-06 15:33N 47°39' W 122°20'0 0.0
2017-Jan-06 14:31N 47°39' W 122°20'0 0.0
2017-Jan-06 13:33N 47°39' W 122°20'0 0.0
2017-Jan-06 12:33N 47°39' W 122°20'0 0.0
2017-Jan-06 11:33N 47°39' W 122°20'0 0.0
2017-Jan-06 10:32N 47°39' W 122°20'0 0.0
2017-Jan-06 09:32N 47°39' W 122°20'0 0.0
2017-Jan-06 08:33N 47°39' W 122°20'0 0.0
2017-Jan-06 07:33N 47°39' W 122°20'0 0.0
2017-Jan-06 06:31N 47°39' W 122°20'0 0.0
2017-Jan-06 05:31N 47°39' W 122°20'0 0.0
2017-Jan-06 04:30N 47°39' W 122°20'0 0.0
2017-Jan-06 03:33N 47°39' W 122°20'0 0.0
2017-Jan-06 02:33N 47°39' W 122°20'0 0.0
2017-Jan-06 01:31N 47°39' W 122°20'0 0.0
2017-Jan-06 00:32N 47°39' W 122°20'0 0.0
2017-Jan-05 23:33N 47°39' W 122°20'0 0.0
2017-Jan-05 22:33N 47°39' W 122°20'0 0.0
2017-Jan-05 21:33N 47°39' W 122°20'0 0.0
2017-Jan-05 20:31N 47°39' W 122°20'0 0.0
2017-Jan-05 19:32N 47°39' W 122°20'0 0.0
2017-Jan-05 18:30N 47°39' W 122°20'0 0.0
2017-Jan-05 17:33N 47°39' W 122°20'0 0.0
2017-Jan-05 16:31N 47°39' W 122°20'0 0.0
2017-Jan-05 15:32N 47°39' W 122°20'0 0.0
2017-Jan-05 14:32N 47°39' W 122°20'0 0.0
2017-Jan-05 13:33N 47°39' W 122°20'0 0.0
2017-Jan-05 12:33N 47°39' W 122°20'0 0.0
2017-Jan-05 11:31N 47°39' W 122°20'0 0.0
2017-Jan-05 10:32N 47°39' W 122°20'0 0.0
2017-Jan-05 09:32N 47°39' W 122°20'0 0.0
2017-Jan-05 08:30N 47°39' W 122°20'0 0.0
2017-Jan-05 07:31N 47°39' W 122°20'0 0.0
2017-Jan-05 06:32N 47°39' W 122°20'0 0.0
2017-Jan-05 05:32N 47°39' W 122°20'0 0.0
2017-Jan-05 04:33N 47°39' W 122°20'0 0.0
2017-Jan-05 03:33N 47°39' W 122°20'0 0.0
2017-Jan-05 02:31N 47°39' W 122°20'0 0.0
2017-Jan-05 01:29N 47°39' W 122°20'0 0.0
2017-Jan-05 00:32N 47°39' W 122°20'0 0.0
2017-Jan-04 23:33N 47°39' W 122°20'0 0.0
2017-Jan-04 22:33N 47°39' W 122°20'0 0.0
2017-Jan-04 21:28N 47°39' W 122°20'0 0.0
2017-Jan-04 20:32N 47°39' W 122°20'0 0.0
2017-Jan-04 19:33N 47°39' W 122°20'0 0.0
2017-Jan-04 18:34N 47°39' W 122°20'0 0.0
2017-Jan-04 17:32N 47°39' W 122°20'0 0.0
2017-Jan-04 16:28N 47°39' W 122°20'0 0.0
2017-Jan-04 15:32N 47°39' W 122°20'0 0.0
2017-Jan-04 14:33N 47°39' W 122°20'0 0.0
2017-Jan-04 13:33N 47°39' W 122°20'0 0.0
2017-Jan-04 12:31N 47°39' W 122°20'0 0.0
2017-Jan-04 11:32N 47°39' W 122°20'0 0.0
2017-Jan-04 10:32N 47°39' W 122°20'0 0.0
2017-Jan-04 09:33N 47°39' W 122°20'0 0.0
2017-Jan-04 08:31N 47°39' W 122°20'0 0.0
2017-Jan-04 07:31N 47°39' W 122°20'0 0.0
2017-Jan-04 06:29N 47°39' W 122°20'0 0.0
2017-Jan-04 05:33N 47°39' W 122°20'0 0.0
2017-Jan-04 04:33N 47°39' W 122°20'0 0.0
2017-Jan-04 03:31N 47°39' W 122°20'0 0.0
2017-Jan-04 02:32N 47°39' W 122°20'0 0.0
2017-Jan-04 01:27N 47°39' W 122°20'0 0.0
2017-Jan-04 00:33N 47°39' W 122°20'0 0.0
2017-Jan-03 23:33N 47°39' W 122°20'0 0.0
2017-Jan-03 22:31N 47°39' W 122°20'0 0.0
2017-Jan-03 21:33N 47°39' W 122°20'0 0.0
2017-Jan-03 20:32N 47°39' W 122°20'0 0.0
2017-Jan-03 19:33N 47°39' W 122°20'0 0.0
2017-Jan-03 18:31N 47°39' W 122°20'0 0.0
2017-Jan-03 17:32N 47°39' W 122°20'0 0.0
2017-Jan-03 16:32N 47°39' W 122°20'0 0.0
2017-Jan-03 15:33N 47°39' W 122°20'0 0.0
2017-Jan-03 14:33N 47°39' W 122°20'0 0.0
2017-Jan-03 13:31N 47°39' W 122°20'0 0.0
2017-Jan-03 12:32N 47°39' W 122°20'0 0.0
2017-Jan-03 11:32N 47°39' W 122°20'0 0.0
2017-Jan-03 10:33N 47°39' W 122°20'0 0.0
2017-Jan-03 09:32N 47°39' W 122°20'0 0.0
2017-Jan-03 08:32N 47°39' W 122°20'0 0.0
2017-Jan-03 07:29N 47°39' W 122°20'0 0.0
2017-Jan-03 06:33N 47°39' W 122°20'0 0.0
2017-Jan-03 05:31N 47°39' W 122°20'0 0.0
2017-Jan-03 04:31N 47°39' W 122°20'0 0.0
2017-Jan-03 03:32N 47°39' W 122°20'0 0.0
2017-Jan-03 02:32N 47°39' W 122°20'0 0.0
2017-Jan-03 01:33N 47°39' W 122°20'0 0.0
2017-Jan-03 00:31N 47°39' W 122°20'0 0.0
2017-Jan-02 23:31N 47°39' W 122°20'0 0.0
2017-Jan-02 22:32N 47°39' W 122°20'0 0.0
2017-Jan-02 21:33N 47°39' W 122°20'0 0.0
2017-Jan-02 20:30N 47°39' W 122°20'0 0.0
2017-Jan-02 19:31N 47°39' W 122°20'0 0.0
2017-Jan-02 18:32N 47°39' W 122°20'0 0.0
2017-Jan-02 17:33N 47°39' W 122°20'0 0.0
2017-Jan-02 16:33N 47°39' W 122°20'0 0.0
2017-Jan-02 15:33N 47°39' W 122°20'0 0.0
2017-Jan-02 14:32N 47°39' W 122°20'0 0.0
2017-Jan-02 13:29N 47°39' W 122°20'0 0.0
2017-Jan-02 12:33N 47°39' W 122°20'0 0.0
2017-Jan-02 11:33N 47°39' W 122°20'0 0.0
2017-Jan-02 10:28N 47°39' W 122°20'0 0.0
2017-Jan-02 09:31N 47°39' W 122°20'0 0.0
2017-Jan-02 08:32N 47°39' W 122°20'0 0.0
2017-Jan-02 07:30N 47°39' W 122°20'0 0.0
2017-Jan-02 06:33N 47°39' W 122°20'0 0.0
2017-Jan-02 05:32N 47°39' W 122°20'0 0.0
2017-Jan-02 04:32N 47°39' W 122°20'0 0.0
2017-Jan-02 03:33N 47°39' W 122°20'0 0.0
2017-Jan-02 02:33N 47°39' W 122°20'0 0.0
2017-Jan-02 01:31N 47°39' W 122°20'0 0.0
2017-Jan-02 00:29N 47°39' W 122°20'0 0.0
2017-Jan-01 23:32N 47°39' W 122°20'0 0.0
2017-Jan-01 22:33N 47°39' W 122°20'0 0.0
2017-Jan-01 21:31N 47°39' W 122°20'0 0.0
2017-Jan-01 20:31N 47°39' W 122°20'0 0.0
2017-Jan-01 19:32N 47°39' W 122°20'0 0.0
2017-Jan-01 18:32N 47°39' W 122°20'0 0.0
2017-Jan-01 17:33N 47°39' W 122°20'0 0.0
2017-Jan-01 16:31N 47°39' W 122°20'0 0.0
2017-Jan-01 15:31N 47°39' W 122°20'0 0.0
2017-Jan-01 14:32N 47°39' W 122°20'0 0.0
2017-Jan-01 13:33N 47°39' W 122°20'0 0.0
2017-Jan-01 12:33N 47°39' W 122°20'0 0.0
2017-Jan-01 11:31N 47°39' W 122°20'0 0.0
2017-Jan-01 10:32N 47°39' W 122°20'0 0.0
2017-Jan-01 09:30N 47°39' W 122°20'0 0.0
2017-Jan-01 08:33N 47°39' W 122°20'0 0.0
2017-Jan-01 07:31N 47°39' W 122°20'0 0.0
2017-Jan-01 06:31N 47°39' W 122°20'0 0.0
2017-Jan-01 05:32N 47°39' W 122°20'0 0.0
2017-Jan-01 04:33N 47°39' W 122°20'0 0.0
2017-Jan-01 03:33N 47°39' W 122°20'0 0.0
2017-Jan-01 02:32N 47°39' W 122°20'0 0.0
2017-Jan-01 01:32N 47°39' W 122°20'0 0.0
2017-Jan-01 00:32N 47°39' W 122°20'0 0.0
2016-Dec-31 23:33N 47°39' W 122°20'0 0.0
2016-Dec-31 22:31N 47°39' W 122°20'0 0.0
2016-Dec-31 21:31N 47°39' W 122°20'0 0.0
2016-Dec-31 20:32N 47°39' W 122°20'0 0.0
2016-Dec-31 19:33N 47°39' W 122°20'0 0.0
2016-Dec-31 18:33N 47°39' W 122°20'0 0.0
2016-Dec-31 17:32N 47°39' W 122°20'0 0.0
2016-Dec-31 16:32N 47°39' W 122°20'0 0.0
2016-Dec-31 15:33N 47°39' W 122°20'0 0.0
2016-Dec-31 14:33N 47°39' W 122°20'0 0.0
2016-Dec-31 13:31N 47°39' W 122°20'0 0.0
2016-Dec-31 12:31N 47°39' W 122°20'0 0.0
2016-Dec-31 11:30N 47°39' W 122°20'0 0.0
2016-Dec-31 10:33N 47°39' W 122°20'0 0.0
2016-Dec-31 09:33N 47°39' W 122°20'0 0.0
2016-Dec-31 08:32N 47°39' W 122°20'0 0.0
2016-Dec-31 07:33N 47°39' W 122°20'0 0.0
2016-Dec-31 06:33N 47°39' W 122°20'0 0.0
2016-Dec-31 05:33N 47°39' W 122°20'0 0.0
2016-Dec-31 04:33N 47°39' W 122°20'0 0.0
2016-Dec-31 03:31N 47°39' W 122°20'0 0.0
2016-Dec-31 02:32N 47°39' W 122°20'0 0.0
2016-Dec-31 01:32N 47°39' W 122°20'0 0.0
2016-Dec-31 00:33N 47°39' W 122°20'0 0.0
2016-Dec-30 23:31N 47°39' W 122°20'0 0.0
2016-Dec-30 22:32N 47°39' W 122°20'0 0.0
2016-Dec-30 21:32N 47°39' W 122°20'0 0.0
2016-Dec-30 20:33N 47°39' W 122°20'0 0.0
2016-Dec-30 19:33N 47°39' W 122°20'0 0.0
2016-Dec-30 18:31N 47°39' W 122°20'0 0.0
2016-Dec-30 17:32N 47°39' W 122°20'0 0.0
2016-Dec-30 16:33N 47°39' W 122°20'0 0.0
2016-Dec-30 15:33N 47°39' W 122°20'0 0.0
2016-Dec-30 14:31N 47°39' W 122°20'0 0.0
2016-Dec-30 13:32N 47°39' W 122°20'0 0.0
2016-Dec-30 12:33N 47°39' W 122°20'0 0.0
2016-Dec-30 11:30N 47°39' W 122°20'0 0.0
2016-Dec-30 10:33N 47°39' W 122°20'0 0.0
2016-Dec-30 09:31N 47°39' W 122°20'0 0.0
2016-Dec-30 08:32N 47°39' W 122°20'0 0.0
2016-Dec-30 07:32N 47°39' W 122°20'0 0.0
2016-Dec-30 06:33N 47°39' W 122°20'0 0.0
2016-Dec-30 05:31N 47°39' W 122°20'0 0.0
2016-Dec-30 04:31N 47°39' W 122°20'0 0.0
2016-Dec-30 03:32N 47°39' W 122°20'0 0.0
2016-Dec-30 02:33N 47°39' W 122°20'0 0.0
2016-Dec-30 01:33N 47°39' W 122°20'0 0.0
2016-Dec-30 00:32N 47°39' W 122°20'0 0.0
2016-Dec-29 23:33N 47°39' W 122°20'0 0.0
2016-Dec-29 22:30N 47°39' W 122°20'0 0.0
2016-Dec-29 21:30N 47°39' W 122°20'0 0.0
2016-Dec-29 20:34N 47°39' W 122°20'  
Track history (hours):
 
Tides and Currents Weather Stations Pressure Air Temp Water Temp Dewpoint Dewpoint Depression Visibility Wind Speed Wind Dir Waves Ship Positions

R. M. Thorstenson

Owner: Icicle Vessel Holding, Inc., Seattle, WA. More information available from US FCC via Universal Licensing System and Coast Guard Vessel Documentation Center.

Last reported at 2017-Jan-08 20:32 UTC. Time now 2017-Jan-21 10:42 UTC.
Position N 52°02' W 128°43'.
Warning: this ship's position is 12 days out of date.

Type: Fishing. MMSI: 366577000.

Date/timePositionNaut miles runAvg speedWind from/ knotsBaromVisibWave heightAir tempDewpointWater temp
2017-Jan-08 20:32N 52°02' W 128°43'8 8.5
2017-Jan-08 19:33N 51°53' W 128°39'8 7.9
2017-Jan-08 18:33N 51°46' W 128°36'7 7.2
2017-Jan-08 17:33N 51°39' W 128°34'7 7.2
2017-Jan-08 16:33N 51°32' W 128°32'7 7.2
2017-Jan-08 15:34N 51°25' W 128°32'7 6.6
2017-Jan-08 14:29N 51°18' W 128°34'6 6.0
2017-Jan-08 13:24N 51°11' W 128°34'121 7.1
2017-Jan-07 20:29N 49°27' W 126°57'8 9.1
2017-Jan-07 19:33N 49°21' W 126°48'9 8.8
2017-Jan-07 18:34N 49°15' W 126°38'8 8.4
2017-Jan-07 17:33N 49°10' W 126°28'9 8.6
2017-Jan-07 16:33N 49°05' W 126°17'8 8.5
2017-Jan-07 15:33N 48°60' W 126°07'8 8.4
2017-Jan-07 14:33N 48°54' W 125°57'8 8.0
2017-Jan-07 13:33N 48°49' W 125°48'8 7.9
2017-Jan-07 12:33N 48°45' W 125°38'8 8.0
2017-Jan-07 11:33N 48°42' W 125°26'8 7.6
2017-Jan-07 10:33N 48°39' W 125°16'8 7.9
2017-Jan-07 09:33N 48°36' W 125°04'8 8.4
2017-Jan-07 08:33N 48°34' W 124°52'8 8.3
2017-Jan-07 07:33N 48°31' W 124°40'8 8.0
2017-Jan-07 06:33N 48°28' W 124°29'7 7.5
2017-Jan-07 05:33N 48°25' W 124°19'7 7.2
2017-Jan-07 04:33N 48°23' W 124°09'8 7.7
2017-Jan-07 03:33N 48°20' W 123°58'10 8.7
2017-Jan-07 02:24N 48°17' W 123°43'910.1
2017-Jan-07 01:33N 48°15' W 123°31'1010.0
2017-Jan-07 00:33N 48°13' W 123°16'1010.2
2017-Jan-06 23:33N 48°13' W 123°01'1211.1
2017-Jan-06 22:29N 48°10' W 122°43'1111.6
2017-Jan-06 21:33N 48°00' W 122°36'1010.3
2017-Jan-06 20:33N 47°52' W 122°27'9 9.4
2017-Jan-06 19:33N 47°42' W 122°25'3 2.7
2017-Jan-06 18:33N 47°40' W 122°24'3 2.6
2017-Jan-06 17:33N 47°39' W 122°20'0 0.3
2017-Jan-06 16:33N 47°38' W 122°20'0 0.4
2017-Jan-06 15:33N 47°39' W 122°20'0 0.0
2017-Jan-06 14:31N 47°39' W 122°20'0 0.0
2017-Jan-06 13:33N 47°39' W 122°20'0 0.0
2017-Jan-06 12:33N 47°39' W 122°20'0 0.0
2017-Jan-06 11:33N 47°39' W 122°20'0 0.0
2017-Jan-06 10:32N 47°39' W 122°20'0 0.0
2017-Jan-06 09:32N 47°39' W 122°20'0 0.0
2017-Jan-06 08:33N 47°39' W 122°20'0 0.0
2017-Jan-06 07:33N 47°39' W 122°20'0 0.0
2017-Jan-06 06:31N 47°39' W 122°20'0 0.0
2017-Jan-06 05:31N 47°39' W 122°20'0 0.0
2017-Jan-06 04:30N 47°39' W 122°20'0 0.0
2017-Jan-06 03:33N 47°39' W 122°20'0 0.0
2017-Jan-06 02:33N 47°39' W 122°20'0 0.0
2017-Jan-06 01:31N 47°39' W 122°20'0 0.0
2017-Jan-06 00:32N 47°39' W 122°20'0 0.0
2017-Jan-05 23:33N 47°39' W 122°20'0 0.0
2017-Jan-05 22:33N 47°39' W 122°20'0 0.0
2017-Jan-05 21:33N 47°39' W 122°20'0 0.0
2017-Jan-05 20:31N 47°39' W 122°20'0 0.0
2017-Jan-05 19:32N 47°39' W 122°20'0 0.0
2017-Jan-05 18:30N 47°39' W 122°20'0 0.0
2017-Jan-05 17:33N 47°39' W 122°20'0 0.0
2017-Jan-05 16:31N 47°39' W 122°20'0 0.0
2017-Jan-05 15:32N 47°39' W 122°20'0 0.0
2017-Jan-05 14:32N 47°39' W 122°20'0 0.0
2017-Jan-05 13:33N 47°39' W 122°20'0 0.0
2017-Jan-05 12:33N 47°39' W 122°20'0 0.0
2017-Jan-05 11:31N 47°39' W 122°20'0 0.0
2017-Jan-05 10:32N 47°39' W 122°20'0 0.0
2017-Jan-05 09:32N 47°39' W 122°20'0 0.0
2017-Jan-05 08:30N 47°39' W 122°20'0 0.0
2017-Jan-05 07:31N 47°39' W 122°20'0 0.0
2017-Jan-05 06:32N 47°39' W 122°20'0 0.0
2017-Jan-05 05:32N 47°39' W 122°20'0 0.0
2017-Jan-05 04:33N 47°39' W 122°20'0 0.0
2017-Jan-05 03:33N 47°39' W 122°20'0 0.0
2017-Jan-05 02:31N 47°39' W 122°20'0 0.0
2017-Jan-05 01:29N 47°39' W 122°20'0 0.0
2017-Jan-05 00:32N 47°39' W 122°20'0 0.0
2017-Jan-04 23:33N 47°39' W 122°20'0 0.0
2017-Jan-04 22:33N 47°39' W 122°20'0 0.0
2017-Jan-04 21:28N 47°39' W 122°20'0 0.0
2017-Jan-04 20:32N 47°39' W 122°20'0 0.0
2017-Jan-04 19:33N 47°39' W 122°20'0 0.0
2017-Jan-04 18:34N 47°39' W 122°20'0 0.0
2017-Jan-04 17:32N 47°39' W 122°20'0 0.0
2017-Jan-04 16:28N 47°39' W 122°20'0 0.0
2017-Jan-04 15:32N 47°39' W 122°20'0 0.0
2017-Jan-04 14:33N 47°39' W 122°20'0 0.0
2017-Jan-04 13:33N 47°39' W 122°20'0 0.0
2017-Jan-04 12:31N 47°39' W 122°20'0 0.0
2017-Jan-04 11:32N 47°39' W 122°20'0 0.0
2017-Jan-04 10:32N 47°39' W 122°20'0 0.0
2017-Jan-04 09:33N 47°39' W 122°20'0 0.0
2017-Jan-04 08:31N 47°39' W 122°20'0 0.0
2017-Jan-04 07:31N 47°39' W 122°20'0 0.0
2017-Jan-04 06:29N 47°39' W 122°20'0 0.0
2017-Jan-04 05:33N 47°39' W 122°20'0 0.0
2017-Jan-04 04:33N 47°39' W 122°20'0 0.0
2017-Jan-04 03:31N 47°39' W 122°20'0 0.0
2017-Jan-04 02:32N 47°39' W 122°20'0 0.0
2017-Jan-04 01:27N 47°39' W 122°20'0 0.0
2017-Jan-04 00:33N 47°39' W 122°20'0 0.0
2017-Jan-03 23:33N 47°39' W 122°20'0 0.0
2017-Jan-03 22:31N 47°39' W 122°20'0 0.0
2017-Jan-03 21:33N 47°39' W 122°20'0 0.0
2017-Jan-03 20:32N 47°39' W 122°20'0 0.0
2017-Jan-03 19:33N 47°39' W 122°20'0 0.0
2017-Jan-03 18:31N 47°39' W 122°20'0 0.0
2017-Jan-03 17:32N 47°39' W 122°20'0 0.0
2017-Jan-03 16:32N 47°39' W 122°20'0 0.0
2017-Jan-03 15:33N 47°39' W 122°20'0 0.0
2017-Jan-03 14:33N 47°39' W 122°20'0 0.0
2017-Jan-03 13:31N 47°39' W 122°20'0 0.0
2017-Jan-03 12:32N 47°39' W 122°20'0 0.0
2017-Jan-03 11:32N 47°39' W 122°20'0 0.0
2017-Jan-03 10:33N 47°39' W 122°20'0 0.0
2017-Jan-03 09:32N 47°39' W 122°20'0 0.0
2017-Jan-03 08:32N 47°39' W 122°20'0 0.0
2017-Jan-03 07:29N 47°39' W 122°20'0 0.0
2017-Jan-03 06:33N 47°39' W 122°20'0 0.0
2017-Jan-03 05:31N 47°39' W 122°20'0 0.0
2017-Jan-03 04:31N 47°39' W 122°20'0 0.0
2017-Jan-03 03:32N 47°39' W 122°20'0 0.0
2017-Jan-03 02:32N 47°39' W 122°20'0 0.0
2017-Jan-03 01:33N 47°39' W 122°20'0 0.0
2017-Jan-03 00:31N 47°39' W 122°20'0 0.0
2017-Jan-02 23:31N 47°39' W 122°20'0 0.0
2017-Jan-02 22:32N 47°39' W 122°20'0 0.0
2017-Jan-02 21:33N 47°39' W 122°20'0 0.0
2017-Jan-02 20:30N 47°39' W 122°20'0 0.0
2017-Jan-02 19:31N 47°39' W 122°20'0 0.0
2017-Jan-02 18:32N 47°39' W 122°20'0 0.0
2017-Jan-02 17:33N 47°39' W 122°20'0 0.0
2017-Jan-02 16:33N 47°39' W 122°20'0 0.0
2017-Jan-02 15:33N 47°39' W 122°20'0 0.0
2017-Jan-02 14:32N 47°39' W 122°20'0 0.0
2017-Jan-02 13:29N 47°39' W 122°20'0 0.0
2017-Jan-02 12:33N 47°39' W 122°20'0 0.0
2017-Jan-02 11:33N 47°39' W 122°20'0 0.0
2017-Jan-02 10:28N 47°39' W 122°20'0 0.0
2017-Jan-02 09:31N 47°39' W 122°20'0 0.0
2017-Jan-02 08:32N 47°39' W 122°20'0 0.0
2017-Jan-02 07:30N 47°39' W 122°20'0 0.0
2017-Jan-02 06:33N 47°39' W 122°20'0 0.0
2017-Jan-02 05:32N 47°39' W 122°20'0 0.0
2017-Jan-02 04:32N 47°39' W 122°20'0 0.0
2017-Jan-02 03:33N 47°39' W 122°20'0 0.0
2017-Jan-02 02:33N 47°39' W 122°20'0 0.0
2017-Jan-02 01:31N 47°39' W 122°20'0 0.0
2017-Jan-02 00:29N 47°39' W 122°20'0 0.0
2017-Jan-01 23:32N 47°39' W 122°20'0 0.0
2017-Jan-01 22:33N 47°39' W 122°20'0 0.0
2017-Jan-01 21:31N 47°39' W 122°20'0 0.0
2017-Jan-01 20:31N 47°39' W 122°20'0 0.0
2017-Jan-01 19:32N 47°39' W 122°20'0 0.0
2017-Jan-01 18:32N 47°39' W 122°20'0 0.0
2017-Jan-01 17:33N 47°39' W 122°20'0 0.0
2017-Jan-01 16:31N 47°39' W 122°20'0 0.0
2017-Jan-01 15:31N 47°39' W 122°20'0 0.0
2017-Jan-01 14:32N 47°39' W 122°20'0 0.0
2017-Jan-01 13:33N 47°39' W 122°20'0 0.0
2017-Jan-01 12:33N 47°39' W 122°20'0 0.0
2017-Jan-01 11:31N 47°39' W 122°20'0 0.0
2017-Jan-01 10:32N 47°39' W 122°20'0 0.0
2017-Jan-01 09:30N 47°39' W 122°20'0 0.0
2017-Jan-01 08:33N 47°39' W 122°20'0 0.0
2017-Jan-01 07:31N 47°39' W 122°20'0 0.0
2017-Jan-01 06:31N 47°39' W 122°20'0 0.0
2017-Jan-01 05:32N 47°39' W 122°20'0 0.0
2017-Jan-01 04:33N 47°39' W 122°20'0 0.0
2017-Jan-01 03:33N 47°39' W 122°20'0 0.0
2017-Jan-01 02:32N 47°39' W 122°20'0 0.0
2017-Jan-01 01:32N 47°39' W 122°20'0 0.0
2017-Jan-01 00:32N 47°39' W 122°20'0 0.0
2016-Dec-31 23:33N 47°39' W 122°20'0 0.0
2016-Dec-31 22:31N 47°39' W 122°20'0 0.0
2016-Dec-31 21:31N 47°39' W 122°20'0 0.0
2016-Dec-31 20:32N 47°39' W 122°20'0 0.0
2016-Dec-31 19:33N 47°39' W 122°20'0 0.0
2016-Dec-31 18:33N 47°39' W 122°20'0 0.0
2016-Dec-31 17:32N 47°39' W 122°20'0 0.0
2016-Dec-31 16:32N 47°39' W 122°20'0 0.0
2016-Dec-31 15:33N 47°39' W 122°20'0 0.0
2016-Dec-31 14:33N 47°39' W 122°20'0 0.0
2016-Dec-31 13:31N 47°39' W 122°20'0 0.0
2016-Dec-31 12:31N 47°39' W 122°20'0 0.0
2016-Dec-31 11:30N 47°39' W 122°20'0 0.0
2016-Dec-31 10:33N 47°39' W 122°20'0 0.0
2016-Dec-31 09:33N 47°39' W 122°20'0 0.0
2016-Dec-31 08:32N 47°39' W 122°20'0 0.0
2016-Dec-31 07:33N 47°39' W 122°20'0 0.0
2016-Dec-31 06:33N 47°39' W 122°20'0 0.0
2016-Dec-31 05:33N 47°39' W 122°20'0 0.0
2016-Dec-31 04:33N 47°39' W 122°20'0 0.0
2016-Dec-31 03:31N 47°39' W 122°20'0 0.0
2016-Dec-31 02:32N 47°39' W 122°20'0 0.0
2016-Dec-31 01:32N 47°39' W 122°20'0 0.0
2016-Dec-31 00:33N 47°39' W 122°20'0 0.0
2016-Dec-30 23:31N 47°39' W 122°20'0 0.0
2016-Dec-30 22:32N 47°39' W 122°20'0 0.0
2016-Dec-30 21:32N 47°39' W 122°20'0 0.0
2016-Dec-30 20:33N 47°39' W 122°20'0 0.0
2016-Dec-30 19:33N 47°39' W 122°20'0 0.0
2016-Dec-30 18:31N 47°39' W 122°20'0 0.0
2016-Dec-30 17:32N 47°39' W 122°20'0 0.0
2016-Dec-30 16:33N 47°39' W 122°20'0 0.0
2016-Dec-30 15:33N 47°39' W 122°20'0 0.0
2016-Dec-30 14:31N 47°39' W 122°20'0 0.0
2016-Dec-30 13:32N 47°39' W 122°20'0 0.0
2016-Dec-30 12:33N 47°39' W 122°20'0 0.0
2016-Dec-30 11:30N 47°39' W 122°20'0 0.0
2016-Dec-30 10:33N 47°39' W 122°20'0 0.0
2016-Dec-30 09:31N 47°39' W 122°20'0 0.0
2016-Dec-30 08:32N 47°39' W 122°20'0 0.0
2016-Dec-30 07:32N 47°39' W 122°20'0 0.0
2016-Dec-30 06:33N 47°39' W 122°20'0 0.0
2016-Dec-30 05:31N 47°39' W 122°20'0 0.0
2016-Dec-30 04:31N 47°39' W 122°20'0 0.0
2016-Dec-30 03:32N 47°39' W 122°20'0 0.0
2016-Dec-30 02:33N 47°39' W 122°20'0 0.0
2016-Dec-30 01:33N 47°39' W 122°20'0 0.0
2016-Dec-30 00:32N 47°39' W 122°20'0 0.0
2016-Dec-29 23:33N 47°39' W 122°20'0 0.0
2016-Dec-29 22:30N 47°39' W 122°20'0 0.0
2016-Dec-29 21:30N 47°39' W 122°20'0 0.0
2016-Dec-29 20:34N 47°39' W 122°20'  

Dump ship's entire track history